Time;durP1;ratioP1;P1;durP2;ratioP2;P2;SDS_P1;SDS_P2;PMS_P1;PMS_P2;Temp;Humidity;BMP_temperature;BMP_pressure;BME280_temperature;BME280_humidity;BME280_pressure;Samples;Min_cycle;Max_cycle;Signal;HPM_P1;HPM_P2
2022/06/01 00:01:05;;;;;;;;;;;20.50;41.40;;;;;;4940889;28;19929;-53
2022/06/01 00:03:32;;;;;;;;;;;20.50;41.40;;;;;;4928130;28;19927;-57
2022/06/01 00:05:59;;;;;;;;;;;20.50;41.40;;;;;;4929194;28;19946;-57
2022/06/01 00:08:25;;;;;;;;;;;20.50;41.40;;;;;;4927063;28;20340;-59
2022/06/01 00:10:53;;;;;;;;;;;20.50;41.40;;;;;;4952441;28;20364;-54
2022/06/01 00:13:20;;;;;;;;;;;20.50;41.40;;;;;;4924598;29;19965;-53
2022/06/01 00:15:47;;;;;;;;;;;20.50;41.40;;;;;;4926553;28;20328;-56
2022/06/01 00:18:14;;;;;;;;;;;20.50;41.40;;;;;;4925666;28;20252;-58
2022/06/01 00:20:40;;;;;;;;;;;20.50;41.50;;;;;;4941768;28;19923;-56
2022/06/01 00:23:07;;;;;;;;;;;20.50;41.40;;;;;;4928106;28;20265;-54
2022/06/01 00:25:34;;;;;;;;;;;20.50;41.50;;;;;;4927314;28;19986;-57
2022/06/01 00:28:02;;;;;;;;;;;20.50;41.50;;;;;;4925794;28;19974;-54
2022/06/01 00:30:29;;;;;;;;;;;20.50;41.50;;;;;;4927030;29;19922;-57
2022/06/01 00:32:55;;;;;;;;;;;20.50;41.60;;;;;;4940847;28;19991;-56
2022/06/01 00:35:23;;;;;;;;;;;20.50;41.50;;;;;;4930060;28;19977;-55
2022/06/01 00:37:50;;;;;;;;;;;20.50;41.50;;;;;;4928745;28;19966;-55
2022/06/01 00:40:17;;;;;;;;;;;20.50;41.50;;;;;;4923592;28;20022;-57
2022/06/01 00:42:44;;;;;;;;;;;20.50;41.50;;;;;;4925359;29;19926;-55
2022/06/01 00:45:13;;;;;;;;;;;20.50;41.60;;;;;;4927570;29;20013;-53
2022/06/01 00:47:40;;;;;;;;;;;20.50;41.50;;;;;;4924092;29;20471;-56
2022/06/01 00:50:07;;;;;;;;;;;20.50;41.50;;;;;;4924670;29;19935;-57
2022/06/01 00:52:37;;;;;;;;;;;20.50;41.60;;;;;;4928939;29;20029;-58
2022/06/01 00:55:05;;;;;;;;;;;20.50;41.50;;;;;;4944177;28;20013;-55
2022/06/01 00:57:31;;;;;;;;;;;20.50;41.60;;;;;;4926949;28;20372;-55
2022/06/01 00:59:58;;;;;;;;;;;20.50;41.60;;;;;;4941889;28;19962;-55
2022/06/01 01:02:26;;;;;;;;;;;20.50;41.60;;;;;;4939329;28;20364;-54
2022/06/01 01:04:53;;;;;;;;;;;20.50;41.60;;;;;;4928024;28;19927;-55
2022/06/01 01:07:19;;;;;;;;;;;20.50;41.60;;;;;;4927493;29;19923;-54
2022/06/01 01:09:46;;;;;;;;;;;20.50;41.60;;;;;;4940882;28;19923;-57
2022/06/01 01:12:13;;;;;;;;;;;20.50;41.60;;;;;;4923851;29;19934;-55
2022/06/01 01:14:41;;;;;;;;;;;20.50;41.60;;;;;;4925654;29;20026;-58
2022/06/01 01:17:08;;;;;;;;;;;20.50;41.60;;;;;;4943856;28;19927;-55
2022/06/01 01:19:37;;;;;;;;;;;20.50;41.60;;;;;;4930869;29;20026;-53
2022/06/01 01:22:10;;;;;;;;;;;20.40;41.60;;;;;;4925666;28;20419;-57
2022/06/01 01:24:38;;;;;;;;;;;20.40;41.60;;;;;;4926257;28;19962;-57
2022/06/01 01:27:07;;;;;;;;;;;20.50;41.60;;;;;;4927769;28;20314;-55
2022/06/01 01:29:34;;;;;;;;;;;20.40;41.60;;;;;;4944276;28;20025;-56
2022/06/01 01:32:01;;;;;;;;;;;20.40;41.60;;;;;;4929710;29;19973;-55
2022/06/01 01:34:28;;;;;;;;;;;20.40;41.60;;;;;;4925828;29;19923;-57
2022/06/01 01:36:56;;;;;;;;;;;20.50;41.60;;;;;;4927157;28;19923;-53
2022/06/01 01:39:22;;;;;;;;;;;20.40;41.60;;;;;;4920425;29;19923;-55
2022/06/01 01:41:49;;;;;;;;;;;20.40;41.60;;;;;;4941524;28;20404;-57
2022/06/01 01:44:18;;;;;;;;;;;20.40;41.60;;;;;;4923335;28;20013;-55
2022/06/01 01:46:47;;;;;;;;;;;20.40;41.60;;;;;;4922129;28;19923;-57
2022/06/01 01:49:13;;;;;;;;;;;20.40;41.60;;;;;;4925890;28;19942;-57
2022/06/01 01:51:40;;;;;;;;;;;20.40;41.60;;;;;;4926631;29;20029;-59
2022/06/01 01:54:07;;;;;;;;;;;20.40;41.60;;;;;;4943375;28;19989;-53
2022/06/01 01:56:38;;;;;;;;;;;20.40;41.60;;;;;;4922228;28;20390;-57
2022/06/01 01:59:11;;;;;;;;;;;20.40;41.60;;;;;;4944323;28;20338;-55
2022/06/01 02:01:42;;;;;;;;;;;20.40;41.60;;;;;;4943722;28;20025;-57
2022/06/01 02:06:04;;;;;;;;;;;20.40;41.60;;;;;;4925990;28;20331;-55
2022/06/01 02:06:57;;;;;;;;;;;20.40;41.70;;;;;;4946085;28;19923;-54
2022/06/01 02:09:24;;;;;;;;;;;20.40;41.70;;;;;;4946373;28;19930;-57
2022/06/01 02:14:45;;;;;;;;;;;20.40;41.70;;;;;;4902862;28;19927;-55
2022/06/01 02:17:14;;;;;;;;;;;20.40;41.70;;;;;;4931312;28;19923;-55
2022/06/01 02:19:42;;;;;;;;;;;20.40;41.70;;;;;;4944872;28;19923;-56
2022/06/01 02:22:10;;;;;;;;;;;20.40;41.70;;;;;;4928993;28;19946;-54
2022/06/01 02:24:37;;;;;;;;;;;20.40;41.70;;;;;;4930149;28;19927;-52
2022/06/01 02:27:04;;;;;;;;;;;20.40;41.80;;;;;;4945209;28;19962;-58
2022/06/01 02:29:31;;;;;;;;;;;20.40;41.70;;;;;;4931009;28;19927;-57
2022/06/01 02:31:58;;;;;;;;;;;20.40;41.70;;;;;;4931045;28;19937;-52
2022/06/01 02:34:27;;;;;;;;;;;20.40;41.70;;;;;;4931104;28;19922;-57
2022/06/01 02:36:54;;;;;;;;;;;20.40;41.80;;;;;;4946048;28;19931;-54
2022/06/01 02:39:20;;;;;;;;;;;20.40;41.80;;;;;;4930360;28;19927;-56
2022/06/01 02:44:31;;;;;;;;;;;20.40;41.80;;;;;;5010748;28;19923;-57
2022/06/01 02:46:58;;;;;;;;;;;20.40;41.80;;;;;;4931237;28;19938;-52
2022/06/01 02:49:26;;;;;;;;;;;20.40;41.70;;;;;;4931508;28;20067;-53
2022/06/01 02:51:53;;;;;;;;;;;20.40;41.80;;;;;;4946280;28;20360;-54
2022/06/01 02:54:20;;;;;;;;;;;20.40;41.80;;;;;;4928743;28;19970;-53
2022/06/01 02:56:48;;;;;;;;;;;20.40;41.80;;;;;;4931091;29;19926;-52
2022/06/01 02:59:15;;;;;;;;;;;20.40;41.80;;;;;;4955052;28;19923;-54
2022/06/01 03:01:43;;;;;;;;;;;20.40;41.80;;;;;;4930607;29;19935;-55
2022/06/01 03:04:09;;;;;;;;;;;20.40;41.80;;;;;;4928624;29;19923;-54
2022/06/01 03:06:37;;;;;;;;;;;20.40;41.80;;;;;;4935508;28;19954;-57
2022/06/01 03:09:04;;;;;;;;;;;20.40;41.80;;;;;;4946578;28;19927;-57
2022/06/01 03:11:31;;;;;;;;;;;20.40;41.80;;;;;;4930254;28;19923;-55
2022/06/01 03:13:57;;;;;;;;;;;20.40;41.80;;;;;;4950213;28;20018;-54
2022/06/01 03:16:24;;;;;;;;;;;20.40;41.80;;;;;;4926664;29;19926;-57
2022/06/01 03:18:51;;;;;;;;;;;20.40;41.80;;;;;;4946122;28;19929;-57
2022/06/01 03:21:19;;;;;;;;;;;20.40;41.80;;;;;;4928012;29;20272;-56
2022/06/01 03:23:47;;;;;;;;;;;20.40;41.80;;;;;;4928895;28;19958;-53
2022/06/01 03:26:13;;;;;;;;;;;20.40;41.80;;;;;;4928428;28;20009;-53
2022/06/01 03:28:40;;;;;;;;;;;20.40;41.80;;;;;;4942368;28;19970;-56
2022/06/01 03:31:07;;;;;;;;;;;20.40;41.90;;;;;;4926461;29;20391;-56
2022/06/01 03:33:35;;;;;;;;;;;20.40;41.90;;;;;;4927957;28;20415;-58
2022/06/01 03:36:01;;;;;;;;;;;20.40;41.90;;;;;;4929001;28;19922;-53
2022/06/01 03:38:28;;;;;;;;;;;20.40;41.90;;;;;;4922835;28;19984;-57
2022/06/01 03:40:56;;;;;;;;;;;20.40;41.90;;;;;;4930129;29;20403;-53
2022/06/01 03:43:23;;;;;;;;;;;20.40;41.90;;;;;;4931246;28;20344;-57
2022/06/01 03:45:59;;;;;;;;;;;20.40;41.90;;;;;;4946132;28;19929;-56
2022/06/01 03:48:27;;;;;;;;;;;20.40;41.90;;;;;;4943757;28;19923;-55
2022/06/01 03:50:54;;;;;;;;;;;20.40;41.90;;;;;;4942986;28;19927;-56
2022/06/01 03:53:23;;;;;;;;;;;20.40;41.90;;;;;;4929463;28;19933;-54
2022/06/01 03:55:49;;;;;;;;;;;20.40;41.90;;;;;;5003904;28;20010;-55
2022/06/01 03:58:19;;;;;;;;;;;20.40;41.90;;;;;;4931448;28;19923;-56
2022/06/01 04:00:46;;;;;;;;;;;20.40;42.00;;;;;;4929735;28;19957;-55
2022/06/01 04:03:12;;;;;;;;;;;20.30;41.90;;;;;;4929266;28;19923;-52
2022/06/01 04:05:39;;;;;;;;;;;20.40;42.00;;;;;;4939162;28;19934;-53
2022/06/01 04:08:06;;;;;;;;;;;20.40;42.00;;;;;;4929924;29;19923;-55
2022/06/01 04:10:33;;;;;;;;;;;20.30;41.90;;;;;;4929015;28;20427;-53
2022/06/01 04:13:00;;;;;;;;;;;20.30;41.90;;;;;;4940293;28;19945;-52
2022/06/01 04:15:28;;;;;;;;;;;20.30;41.90;;;;;;4940211;28;19977;-55
2022/06/01 04:17:54;;;;;;;;;;;20.30;42.00;;;;;;4929074;28;19962;-56
2022/06/01 04:20:21;;;;;;;;;;;20.30;41.90;;;;;;4929186;29;20367;-53
2022/06/01 04:22:48;;;;;;;;;;;20.30;42.00;;;;;;4941394;28;19923;-56
2022/06/01 04:25:15;;;;;;;;;;;20.40;42.10;;;;;;4924830;29;19927;-55
2022/06/01 04:27:42;;;;;;;;;;;20.30;42.00;;;;;;4948868;28;20382;-57
2022/06/01 04:30:09;;;;;;;;;;;20.30;42.00;;;;;;4925090;29;20352;-57
2022/06/01 04:32:37;;;;;;;;;;;20.30;42.70;;;;;;4947340;28;20057;-56
2022/06/01 04:35:05;;;;;;;;;;;20.30;42.10;;;;;;4928278;28;19927;-53
2022/06/01 04:37:31;;;;;;;;;;;20.30;42.10;;;;;;4929243;28;19931;-54
2022/06/01 04:39:58;;;;;;;;;;;20.30;42.10;;;;;;4928934;29;19929;-55
2022/06/01 04:42:25;;;;;;;;;;;20.30;42.10;;;;;;4946447;28;20336;-54
2022/06/01 04:44:51;;;;;;;;;;;20.30;42.70;;;;;;4928463;29;19923;-55
2022/06/01 04:47:19;;;;;;;;;;;20.30;42.10;;;;;;4928075;28;19973;-55
2022/06/01 04:49:47;;;;;;;;;;;20.30;42.10;;;;;;4940766;28;20437;-56
2022/06/01 04:52:14;;;;;;;;;;;20.30;42.20;;;;;;4923520;28;20583;-55
2022/06/01 04:54:41;;;;;;;;;;;20.30;42.10;;;;;;4927478;28;19922;-56
2022/06/01 04:57:07;;;;;;;;;;;20.30;42.20;;;;;;4929453;28;20283;-56
2022/06/01 04:59:34;;;;;;;;;;;20.30;42.10;;;;;;4928488;29;19950;-56
2022/06/01 05:02:01;;;;;;;;;;;20.30;42.10;;;;;;4943891;28;20339;-57
2022/06/01 05:04:28;;;;;;;;;;;20.30;42.10;;;;;;4939358;28;19958;-58
2022/06/01 05:06:56;;;;;;;;;;;20.30;42.20;;;;;;4928191;29;19934;-51
2022/06/01 05:09:23;;;;;;;;;;;20.30;42.20;;;;;;4926425;29;20276;-57
2022/06/01 05:11:49;;;;;;;;;;;20.40;42.30;;;;;;4928202;29;20361;-52
2022/06/01 05:14:16;;;;;;;;;;;20.40;42.30;;;;;;4926882;28;20017;-55
2022/06/01 05:16:43;;;;;;;;;;;20.30;42.30;;;;;;4947966;28;19941;-54
2022/06/01 05:19:10;;;;;;;;;;;20.30;42.30;;;;;;4921513;29;20384;-53
2022/06/01 05:21:36;;;;;;;;;;;20.40;42.40;;;;;;4925705;29;19923;-56
2022/06/01 05:24:05;;;;;;;;;;;20.40;42.50;;;;;;4927568;29;19966;-55
2022/06/01 05:26:32;;;;;;;;;;;20.30;42.40;;;;;;4928469;28;20315;-53
2022/06/01 05:28:59;;;;;;;;;;;20.40;42.50;;;;;;4928134;29;20332;-52
2022/06/01 05:31:25;;;;;;;;;;;20.30;42.40;;;;;;4950976;28;20451;-55
2022/06/01 05:33:52;;;;;;;;;;;20.30;42.40;;;;;;4926824;29;20438;-57
2022/06/01 05:36:19;;;;;;;;;;;20.40;42.50;;;;;;4927903;29;19926;-57
2022/06/01 05:38:47;;;;;;;;;;;20.30;42.50;;;;;;4946971;28;19976;-55
2022/06/01 05:41:15;;;;;;;;;;;20.30;42.50;;;;;;4929503;28;19927;-57
2022/06/01 05:43:42;;;;;;;;;;;20.30;42.50;;;;;;4928676;28;20042;-53
2022/06/01 05:46:08;;;;;;;;;;;20.30;42.50;;;;;;4952781;28;20013;-58
2022/06/01 05:48:36;;;;;;;;;;;20.30;42.60;;;;;;4941474;28;20033;-56
2022/06/01 05:51:02;;;;;;;;;;;20.30;42.60;;;;;;4929848;29;19927;-58
2022/06/01 05:53:29;;;;;;;;;;;20.30;42.70;;;;;;4928042;28;19922;-57
2022/06/01 05:55:55;;;;;;;;;;;20.30;42.90;;;;;;4952490;28;19933;-54
2022/06/01 05:58:24;;;;;;;;;;;20.30;42.90;;;;;;4942985;28;19986;-58
2022/06/01 06:00:52;;;;;;;;;;;20.30;42.90;;;;;;4928131;28;19930;-54
2022/06/01 06:03:19;;;;;;;;;;;20.30;42.90;;;;;;4928040;28;19923;-51
2022/06/01 06:08:29;;;;;;;;;;;20.30;42.80;;;;;;4935989;28;19933;-56
2022/06/01 06:10:56;;;;;;;;;;;20.30;42.80;;;;;;4949936;28;19922;-54
2022/06/01 06:13:24;;;;;;;;;;;20.30;42.80;;;;;;4935808;28;20021;-56
2022/06/01 06:15:51;;;;;;;;;;;20.30;42.80;;;;;;4940421;28;19989;-55
2022/06/01 06:18:18;;;;;;;;;;;20.30;42.80;;;;;;4929408;28;19922;-55
2022/06/01 06:20:44;;;;;;;;;;;20.30;42.80;;;;;;4951652;28;20378;-55
2022/06/01 06:23:12;;;;;;;;;;;20.30;42.80;;;;;;4932532;28;19984;-55
2022/06/01 06:25:38;;;;;;;;;;;20.30;42.80;;;;;;4935548;28;19948;-56
2022/06/01 06:28:05;;;;;;;;;;;20.40;42.80;;;;;;4951442;28;19923;-54
2022/06/01 06:30:34;;;;;;;;;;;20.30;42.90;;;;;;4938303;28;19927;-54
2022/06/01 06:33:00;;;;;;;;;;;20.30;43.00;;;;;;4930130;28;19968;-56
2022/06/01 06:35:27;;;;;;;;;;;20.30;43.20;;;;;;4940802;28;19945;-55
2022/06/01 06:37:54;;;;;;;;;;;20.30;43.20;;;;;;4939718;28;19970;-55
2022/06/01 06:40:20;;;;;;;;;;;20.30;43.20;;;;;;4932720;28;19981;-55
2022/06/01 06:42:47;;;;;;;;;;;20.30;43.20;;;;;;4932552;28;19933;-55
2022/06/01 06:45:14;;;;;;;;;;;20.30;43.20;;;;;;4941401;28;20020;-53
2022/06/01 06:47:42;;;;;;;;;;;20.30;43.30;;;;;;4938874;28;19933;-50
2022/06/01 06:50:09;;;;;;;;;;;20.30;43.40;;;;;;4931559;28;19959;-54
2022/06/01 06:52:36;;;;;;;;;;;20.30;43.40;;;;;;4951975;28;20032;-51
2022/06/01 06:55:03;;;;;;;;;;;20.30;43.40;;;;;;4947670;28;20390;-56
2022/06/01 06:57:29;;;;;;;;;;;20.30;43.40;;;;;;4946233;28;19923;-52
2022/06/01 06:59:56;;;;;;;;;;;20.30;43.50;;;;;;4933337;29;19923;-56
2022/06/01 07:02:22;;;;;;;;;;;20.30;43.50;;;;;;4954267;28;19923;-53
2022/06/01 07:04:50;;;;;;;;;;;20.30;43.50;;;;;;4929908;28;19930;-56
2022/06/01 07:07:17;;;;;;;;;;;20.30;43.50;;;;;;4947781;28;19923;-57
2022/06/01 07:09:44;;;;;;;;;;;20.30;43.50;;;;;;4932670;29;20565;-49
2022/06/01 07:12:11;;;;;;;;;;;20.30;43.40;;;;;;4931718;28;19958;-56
2022/06/01 07:14:37;;;;;;;;;;;20.30;43.40;;;;;;4928468;28;19977;-54
2022/06/01 07:17:04;;;;;;;;;;;20.30;43.40;;;;;;4928932;28;19923;-57
2022/06/01 07:19:31;;;;;;;;;;;20.30;43.40;;;;;;4928898;28;19927;-56
2022/06/01 07:21:59;;;;;;;;;;;20.30;43.40;;;;;;4946970;28;20336;-55
2022/06/01 07:24:26;;;;;;;;;;;20.30;43.40;;;;;;4953076;28;19922;-54
2022/06/01 07:26:52;;;;;;;;;;;20.30;43.40;;;;;;4946578;28;19923;-52
2022/06/01 07:29:19;;;;;;;;;;;20.30;43.40;;;;;;4932987;28;20368;-58
2022/06/01 07:31:46;;;;;;;;;;;20.40;43.60;;;;;;4932604;28;20411;-50
2022/06/01 07:34:13;;;;;;;;;;;20.40;43.60;;;;;;4932709;28;20005;-54
2022/06/01 07:36:39;;;;;;;;;;;20.40;43.60;;;;;;4924439;28;19942;-55
2022/06/01 07:44:45;;;;;;;;;;;20.40;43.70;;;;;;4951579;28;19922;-56
2022/06/01 07:47:12;;;;;;;;;;;20.40;43.60;;;;;;4927532;28;20287;-53
2022/06/01 07:49:39;;;;;;;;;;;20.40;43.70;;;;;;4932793;28;19949;-57
2022/06/01 07:52:07;;;;;;;;;;;20.40;43.70;;;;;;4945441;28;19929;-55
2022/06/01 07:54:37;;;;;;;;;;;20.50;43.80;;;;;;4928093;28;20069;-52
2022/06/01 07:57:04;;;;;;;;;;;20.50;43.80;;;;;;4927851;28;19927;-58
2022/06/01 07:59:30;;;;;;;;;;;20.50;43.80;;;;;;4929509;28;19984;-54
2022/06/01 08:01:57;;;;;;;;;;;20.50;43.80;;;;;;4929680;28;20021;-53
2022/06/01 08:04:24;;;;;;;;;;;20.50;43.80;;;;;;4928797;28;19922;-54
2022/06/01 08:06:51;;;;;;;;;;;20.50;43.80;;;;;;4926769;28;20328;-55
2022/06/01 08:09:17;;;;;;;;;;;20.50;43.80;;;;;;4933887;28;19927;-54
2022/06/01 08:14:31;;;;;;;;;;;20.50;43.80;;;;;;4934144;28;19927;-53
2022/06/01 08:16:58;;;;;;;;;;;20.50;43.80;;;;;;4927657;28;20009;-51
2022/06/01 08:19:24;;;;;;;;;;;20.50;43.80;;;;;;4929874;28;19922;-54
2022/06/01 08:21:51;;;;;;;;;;;20.50;43.80;;;;;;4940466;28;19923;-55
2022/06/01 08:24:18;;;;;;;;;;;20.50;43.90;;;;;;4951010;28;19927;-53
2022/06/01 08:26:46;;;;;;;;;;;20.60;44.00;;;;;;5006345;28;19927;-55
2022/06/01 08:29:12;;;;;;;;;;;20.60;44.00;;;;;;4930014;28;20425;-53
2022/06/01 08:31:39;;;;;;;;;;;20.60;44.00;;;;;;4928751;28;19923;-56
2022/06/01 08:34:06;;;;;;;;;;;20.60;44.00;;;;;;4928639;28;20441;-54
2022/06/01 08:36:33;;;;;;;;;;;20.60;44.00;;;;;;4928916;28;19923;-57
2022/06/01 08:39:00;;;;;;;;;;;20.60;44.10;;;;;;4922959;28;20264;-59
2022/06/01 08:41:27;;;;;;;;;;;20.60;44.10;;;;;;4941711;28;20381;-57
2022/06/01 08:43:55;;;;;;;;;;;20.60;44.10;;;;;;4928666;28;20072;-54
2022/06/01 08:46:22;;;;;;;;;;;20.60;44.10;;;;;;4937555;28;19934;-55
2022/06/01 08:48:49;;;;;;;;;;;20.60;44.10;;;;;;4943814;28;19929;-56
2022/06/01 08:51:16;;;;;;;;;;;20.60;44.10;;;;;;4929875;28;19950;-53
2022/06/01 08:53:43;;;;;;;;;;;20.60;44.10;;;;;;4949542;28;19927;-53
2022/06/01 08:56:10;;;;;;;;;;;20.60;44.00;;;;;;4928867;28;20401;-56
2022/06/01 08:58:40;;;;;;;;;;;20.70;44.10;;;;;;4932330;28;19926;-57
2022/06/01 09:01:10;;;;;;;;;;;20.70;44.10;;;;;;4929229;28;20014;-58
2022/06/01 09:03:39;;;;;;;;;;;20.70;44.10;;;;;;4929460;28;19927;-51
2022/06/01 09:06:07;;;;;;;;;;;20.70;44.10;;;;;;4933334;28;20009;-58
2022/06/01 09:08:35;;;;;;;;;;;20.70;44.10;;;;;;4931021;28;20000;-54
2022/06/01 09:11:03;;;;;;;;;;;20.70;44.10;;;;;;4930915;28;19923;-56
2022/06/01 09:13:35;;;;;;;;;;;20.70;44.10;;;;;;4927048;28;19993;-54
2022/06/01 09:16:02;;;;;;;;;;;20.70;44.10;;;;;;4946859;28;19927;-53
2022/06/01 09:18:31;;;;;;;;;;;20.70;44.10;;;;;;4932913;28;19929;-52
2022/06/01 09:23:42;;;;;;;;;;;20.70;44.10;;;;;;5013597;28;19969;-52
2022/06/01 09:26:09;;;;;;;;;;;20.70;44.10;;;;;;4957450;28;19923;-57
2022/06/01 09:28:37;;;;;;;;;;;20.70;44.10;;;;;;4940627;28;19969;-54
2022/06/01 09:31:09;;;;;;;;;;;20.70;44.10;;;;;;4930161;28;19954;-54
2022/06/01 09:33:37;;;;;;;;;;;20.70;44.10;;;;;;4947900;28;19922;-57
2022/06/01 09:36:05;;;;;;;;;;;20.70;44.10;;;;;;4934157;28;20014;-54
2022/06/01 09:38:36;;;;;;;;;;;20.70;44.10;;;;;;4952078;28;19923;-57
2022/06/01 09:41:04;;;;;;;;;;;20.70;44.20;;;;;;4925249;28;19954;-53
2022/06/01 09:43:31;;;;;;;;;;;20.70;44.20;;;;;;4953819;28;19928;-50
2022/06/01 09:45:58;;;;;;;;;;;20.70;44.30;;;;;;4930987;28;20156;-50
2022/06/01 09:48:29;;;;;;;;;;;20.70;44.40;;;;;;4923517;28;20015;-55
2022/06/01 09:51:05;;;;;;;;;;;20.80;44.50;;;;;;4932108;29;19949;-51
2022/06/01 09:53:33;;;;;;;;;;;20.80;44.60;;;;;;4934915;28;19933;-56
2022/06/01 09:56:01;;;;;;;;;;;20.80;44.60;;;;;;4940587;28;20316;-54
2022/06/01 10:06:53;;;;;;;;;;;20.80;44.60;;;;;;4927272;28;19973;-51
2022/06/01 10:09:21;;;;;;;;;;;20.80;44.60;;;;;;4940286;28;20030;-55
2022/06/01 10:11:49;;;;;;;;;;;20.80;44.60;;;;;;4949759;28;19926;-50
2022/06/01 10:14:18;;;;;;;;;;;20.90;44.70;;;;;;4944112;28;19927;-56
2022/06/01 10:16:59;;;;;;;;;;;20.90;44.70;;;;;;4938487;28;19941;-55
2022/06/01 10:19:28;;;;;;;;;;;20.90;44.70;;;;;;4930088;28;20085;-60
2022/06/01 10:21:58;;;;;;;;;;;20.90;44.80;;;;;;4929072;28;19923;-51
2022/06/01 10:24:26;;;;;;;;;;;20.90;44.80;;;;;;4926777;28;19934;-56
2022/06/01 10:26:58;;;;;;;;;;;20.90;44.80;;;;;;4944045;28;19927;-54
2022/06/01 10:29:27;;;;;;;;;;;20.90;44.70;;;;;;4938189;28;19966;-55
2022/06/01 10:31:55;;;;;;;;;;;20.90;44.80;;;;;;4935516;28;20430;-50
2022/06/01 10:34:24;;;;;;;;;;;20.90;44.80;;;;;;4930071;28;20017;-54
2022/06/01 10:36:53;;;;;;;;;;;20.90;44.80;;;;;;4940311;28;20337;-59
2022/06/01 10:39:22;;;;;;;;;;;20.90;44.70;;;;;;4944940;28;19923;-59
2022/06/01 10:41:51;;;;;;;;;;;20.90;44.70;;;;;;4930452;28;19946;-52
2022/06/01 10:44:20;;;;;;;;;;;21.00;44.80;;;;;;4935013;28;20387;-56
2022/06/01 10:46:49;;;;;;;;;;;21.00;44.70;;;;;;4921916;28;19922;-54
2022/06/01 10:49:20;;;;;;;;;;;21.00;44.80;;;;;;4921277;28;20021;-55
2022/06/01 10:51:49;;;;;;;;;;;21.00;44.70;;;;;;4916158;28;19969;-52
2022/06/01 10:54:18;;;;;;;;;;;21.00;44.70;;;;;;4932551;28;19923;-55
2022/06/01 10:56:46;;;;;;;;;;;21.00;44.70;;;;;;4998453;28;19921;-51
2022/06/01 10:59:13;;;;;;;;;;;20.90;44.60;;;;;;4935339;28;20324;-57
2022/06/01 11:01:46;;;;;;;;;;;21.00;44.70;;;;;;4945550;28;20221;-52
2022/06/01 11:04:18;;;;;;;;;;;20.90;44.60;;;;;;4919654;28;20436;-56
2022/06/01 11:06:55;;;;;;;;;;;21.00;44.70;;;;;;4935200;28;20009;-54
2022/06/01 11:09:24;;;;;;;;;;;21.00;44.60;;;;;;4923975;28;20013;-51
2022/06/01 11:11:55;;;;;;;;;;;21.00;44.70;;;;;;4925207;28;19949;-57
2022/06/01 11:14:25;;;;;;;;;;;21.00;44.60;;;;;;4926494;28;19926;-52
2022/06/01 11:16:56;;;;;;;;;;;21.00;44.60;;;;;;4927864;28;19953;-49
2022/06/01 11:19:30;;;;;;;;;;;21.00;44.60;;;;;;4924749;28;19989;-53
2022/06/01 11:21:58;;;;;;;;;;;21.00;44.60;;;;;;4948732;28;19973;-54
2022/06/01 11:24:33;;;;;;;;;;;21.00;44.60;;;;;;4931212;28;19929;-54
2022/06/01 11:27:05;;;;;;;;;;;20.90;44.50;;;;;;4945692;28;19945;-53
2022/06/01 11:29:36;;;;;;;;;;;21.00;44.60;;;;;;4941921;28;20298;-50
2022/06/01 11:32:04;;;;;;;;;;;21.00;44.60;;;;;;4926793;28;19926;-56
2022/06/01 11:34:33;;;;;;;;;;;21.00;44.60;;;;;;4952069;28;19927;-52
2022/06/01 11:37:01;;;;;;;;;;;20.90;44.50;;;;;;4936755;28;20002;-55
2022/06/01 11:39:28;;;;;;;;;;;21.00;44.60;;;;;;4929229;28;20374;-51
2022/06/01 11:41:57;;;;;;;;;;;21.00;44.70;;;;;;4925385;28;19962;-58
2022/06/01 11:44:27;;;;;;;;;;;21.00;44.70;;;;;;4926845;28;19926;-57
2022/06/01 11:46:54;;;;;;;;;;;21.00;44.70;;;;;;4928898;28;19923;-54
2022/06/01 11:49:26;;;;;;;;;;;21.00;44.70;;;;;;4949554;28;19954;-56
2022/06/01 11:51:53;;;;;;;;;;;21.00;44.70;;;;;;4942011;28;19931;-52
2022/06/01 11:54:25;;;;;;;;;;;21.00;44.70;;;;;;4926539;28;20435;-57
2022/06/01 11:56:54;;;;;;;;;;;21.10;44.80;;;;;;4924291;28;19976;-57
2022/06/01 11:59:25;;;;;;;;;;;21.10;44.90;;;;;;4944457;28;19938;-54
2022/06/01 12:01:56;;;;;;;;;;;21.10;44.80;;;;;;4926939;28;19973;-52
2022/06/01 12:04:24;;;;;;;;;;;21.10;44.80;;;;;;4926729;28;20372;-53
2022/06/01 12:06:56;;;;;;;;;;;21.10;44.80;;;;;;4953778;28;20338;-57
2022/06/01 12:09:25;;;;;;;;;;;21.10;44.80;;;;;;4927418;28;19966;-57
2022/06/01 12:11:52;;;;;;;;;;;21.00;44.80;;;;;;4928010;28;20390;-56
2022/06/01 12:14:20;;;;;;;;;;;21.10;44.80;;;;;;4926660;28;19964;-58
2022/06/01 12:16:47;;;;;;;;;;;21.10;44.80;;;;;;4928255;28;20017;-54
2022/06/01 12:19:32;;;;;;;;;;;21.10;44.70;;;;;;4927235;28;19923;-51
2022/06/01 12:22:00;;;;;;;;;;;21.10;44.70;;;;;;4923976;28;19972;-53
2022/06/01 12:30:05;;;;;;;;;;;21.10;44.70;;;;;;4936428;28;19934;-57
2022/06/01 12:32:50;;;;;;;;;;;21.10;44.70;;;;;;4929986;28;19977;-54
2022/06/01 12:35:18;;;;;;;;;;;21.10;44.60;;;;;;5006309;28;20472;-52
2022/06/01 12:37:47;;;;;;;;;;;21.10;44.60;;;;;;4926904;28;20061;-53
2022/06/01 12:40:17;;;;;;;;;;;21.10;44.60;;;;;;4927692;28;19950;-52
2022/06/01 12:42:44;;;;;;;;;;;21.10;44.60;;;;;;4923984;28;20392;-51
2022/06/01 12:45:12;;;;;;;;;;;21.10;44.60;;;;;;4927270;28;19926;-49
2022/06/01 12:47:43;;;;;;;;;;;21.10;44.50;;;;;;4942029;28;19965;-54
2022/06/01 12:50:11;;;;;;;;;;;21.10;44.50;;;;;;4930394;28;19929;-49
2022/06/01 12:52:39;;;;;;;;;;;21.10;44.50;;;;;;4921984;28;19973;-51
2022/06/01 12:55:07;;;;;;;;;;;21.10;44.50;;;;;;4941533;28;19977;-52
2022/06/01 12:57:36;;;;;;;;;;;21.10;44.50;;;;;;4937863;28;19923;-50
2022/06/01 13:00:05;;;;;;;;;;;21.10;44.50;;;;;;4927262;28;20439;-53
2022/06/01 13:02:33;;;;;;;;;;;21.10;44.50;;;;;;4927421;28;19949;-48
2022/06/01 13:05:00;;;;;;;;;;;21.10;44.50;;;;;;4926731;28;19923;-52
2022/06/01 13:07:28;;;;;;;;;;;21.10;44.50;;;;;;4940673;28;20013;-52
2022/06/01 13:10:09;;;;;;;;;;;21.10;44.40;;;;;;4925416;28;19954;-48
2022/06/01 13:12:35;;;;;;;;;;;21.10;44.40;;;;;;4944666;28;19930;-58
2022/06/01 13:15:13;;;;;;;;;;;21.10;45.00;;;;;;4934805;28;20017;-53
2022/06/01 13:17:50;;;;;;;;;;;21.20;44.50;;;;;;4931439;28;20035;-51
2022/06/01 13:20:16;;;;;;;;;;;21.20;44.50;;;;;;4942239;28;19934;-53
2022/06/01 13:22:44;;;;;;;;;;;21.20;44.40;;;;;;4928573;28;20433;-49
2022/06/01 13:25:13;;;;;;;;;;;21.20;44.40;;;;;;4923155;28;19954;-57
2022/06/01 13:27:40;;;;;;;;;;;21.10;44.30;;;;;;4929792;28;20028;-58
2022/06/01 13:30:07;;;;;;;;;;;21.20;44.40;;;;;;4926379;28;19942;-56
2022/06/01 13:32:35;;;;;;;;;;;21.10;44.20;;;;;;4921007;28;20017;-56
2022/06/01 13:35:02;;;;;;;;;;;21.10;44.20;;;;;;4925231;28;20021;-54
2022/06/01 13:37:30;;;;;;;;;;;21.10;44.00;;;;;;4930401;28;20218;-57
2022/06/01 13:39:58;;;;;;;;;;;21.10;43.90;;;;;;4927336;28;20384;-56
2022/06/01 13:42:32;;;;;;;;;;;21.10;43.80;;;;;;4949663;28;19989;-55
2022/06/01 13:45:07;;;;;;;;;;;21.10;43.80;;;;;;4927391;28;19923;-56
2022/06/01 13:47:35;;;;;;;;;;;21.10;43.70;;;;;;4920869;28;20276;-55
2022/06/01 13:50:03;;;;;;;;;;;21.10;43.70;;;;;;4955458;28;20300;-55
2022/06/01 13:52:29;;;;;;;;;;;21.00;43.50;;;;;;4951440;28;19934;-57
2022/06/01 13:55:07;;;;;;;;;;;21.00;43.50;;;;;;4929113;28;19950;-54
2022/06/01 13:57:44;;;;;;;;;;;21.00;43.30;;;;;;4940321;28;19929;-56
2022/06/01 14:00:16;;;;;;;;;;;21.00;43.20;;;;;;4924605;28;19963;-56
2022/06/01 14:02:45;;;;;;;;;;;21.00;43.10;;;;;;4925902;28;19927;-56
2022/06/01 14:05:13;;;;;;;;;;;20.90;42.90;;;;;;4933993;28;19974;-56
2022/06/01 14:07:44;;;;;;;;;;;20.90;42.90;;;;;;4948634;28;19934;-55
2022/06/01 14:10:11;;;;;;;;;;;20.90;42.80;;;;;;4924547;28;19977;-58
2022/06/01 14:12:39;;;;;;;;;;;20.90;42.40;;;;;;4940151;28;20014;-54
2022/06/01 14:15:06;;;;;;;;;;;20.90;42.40;;;;;;4944009;28;19977;-56
2022/06/01 14:17:33;;;;;;;;;;;20.80;42.30;;;;;;4928158;28;19922;-56
2022/06/01 14:20:00;;;;;;;;;;;20.80;42.40;;;;;;4943411;28;19923;-56
2022/06/01 14:22:26;;;;;;;;;;;20.80;42.40;;;;;;4929343;28;19929;-56
2022/06/01 14:30:23;;;;;;;;;;;20.80;42.40;;;;;;5010561;28;19927;-55
2022/06/01 14:32:50;;;;;;;;;;;20.80;42.50;;;;;;4938404;28;19938;-57
2022/06/01 14:35:17;;;;;;;;;;;20.80;42.50;;;;;;5011915;28;19923;-58
2022/06/01 14:37:44;;;;;;;;;;;20.80;42.50;;;;;;4940137;28;19941;-56
2022/06/01 14:40:11;;;;;;;;;;;20.80;42.50;;;;;;4927329;28;19973;-59
2022/06/01 14:42:39;;;;;;;;;;;20.80;42.50;;;;;;4924607;28;20327;-55
2022/06/01 14:45:05;;;;;;;;;;;20.80;42.50;;;;;;5007825;28;20013;-58
2022/06/01 14:47:32;;;;;;;;;;;20.80;42.50;;;;;;4932559;28;20376;-59
2022/06/01 14:49:59;;;;;;;;;;;20.80;42.50;;;;;;4928202;28;19934;-55
2022/06/01 14:52:26;;;;;;;;;;;20.80;42.50;;;;;;4942576;28;19927;-56
2022/06/01 14:54:53;;;;;;;;;;;20.80;42.50;;;;;;4923065;28;19950;-57
2022/06/01 14:57:19;;;;;;;;;;;20.80;42.50;;;;;;4923735;28;19973;-55
2022/06/01 14:59:49;;;;;;;;;;;20.80;42.50;;;;;;4941049;28;19935;-57